Terminal Aerodrome Forecast
Issued by NWS

Home | Current Version | Previous Version | Text Only | Print | Product List | Glossary On
Versions: 1 2 3 4 5 6 7 8 9 10 11 12 13 14 15
649
FTPA31 PHFO 231120
TAFHNY
TAF
PHNY 231120Z 2312/2412 05012KT P6SM FEW025
     FM232000 04020G26KT P6SM VCSH SCT025 BKN035
     FM240500 05014KT P6SM FEW025 SCT035=

USA.gov is the U.S. government's official web portal to all federal, state and local government web resources and services.